createdAt,value
2019-02-17T00:02:26.949Z,22.20
2019-02-17T00:04:57.025Z,23.80
2019-02-17T00:07:27.102Z,21.13
2019-02-17T00:09:57.499Z,20.43
2019-02-17T00:12:27.536Z,20.80
2019-02-17T00:14:57.883Z,22.00
2019-02-17T00:17:28.644Z,21.90
2019-02-17T00:19:58.669Z,19.20
2019-02-17T00:22:28.923Z,22.50
2019-02-17T00:24:59.115Z,22.73
2019-02-17T00:27:30.104Z,21.73
2019-02-17T00:30:00.481Z,20.47
2019-02-17T00:32:30.789Z,20.90
2019-02-17T00:35:00.843Z,21.23
2019-02-17T00:37:30.874Z,22.20
2019-02-17T00:40:01.315Z,21.30
2019-02-17T00:42:31.237Z,22.93
2019-02-17T00:45:01.176Z,22.80
2019-02-17T00:47:31.214Z,22.13
2019-02-17T00:50:01.242Z,20.27
2019-02-17T00:52:31.286Z,22.23
2019-02-17T00:55:01.160Z,27.10
2019-02-17T00:57:31.088Z,23.70
2019-02-17T01:00:01.130Z,24.57
2019-02-17T01:02:31.281Z,24.10
2019-02-17T01:05:01.252Z,23.47
2019-02-17T01:07:31.124Z,20.90
2019-02-17T01:10:01.655Z,20.73
2019-02-17T01:12:31.875Z,22.10
2019-02-17T01:15:01.977Z,21.90
2019-02-17T01:17:31.941Z,22.13
2019-02-17T01:20:02.039Z,23.27
2019-02-17T01:22:33.336Z,24.17
2019-02-17T01:25:03.494Z,23.83
2019-02-17T01:27:33.380Z,21.77
2019-02-17T01:30:03.859Z,26.20
2019-02-17T01:32:33.899Z,24.30
2019-02-17T01:35:04.149Z,21.70
2019-02-17T01:37:34.414Z,24.33
2019-02-17T01:40:05.269Z,21.90
2019-02-17T01:42:35.653Z,22.70
2019-02-17T01:45:06.401Z,24.97
2019-02-17T01:47:36.679Z,23.27
2019-02-17T01:50:13.719Z,25.30
2019-02-17T01:52:43.999Z,22.27
2019-02-17T01:55:14.401Z,25.07
2019-02-17T01:57:44.515Z,23.27
2019-02-17T02:00:15.062Z,26.30
2019-02-17T02:02:45.187Z,25.40
2019-02-17T02:05:15.714Z,25.43
2019-02-17T02:07:45.698Z,22.17
2019-02-17T02:10:16.007Z,24.60
2019-02-17T02:12:48.443Z,24.10
2019-02-17T02:15:18.549Z,24.80
2019-02-17T02:17:48.509Z,24.73
2019-02-17T02:20:18.328Z,25.90
2019-02-17T02:22:48.281Z,25.13
2019-02-17T02:25:19.386Z,24.53
2019-02-17T02:27:49.686Z,24.10
2019-02-17T02:30:19.991Z,24.10
2019-02-17T02:32:49.966Z,23.13
2019-02-17T02:35:20.008Z,22.07
2019-02-17T02:37:49.928Z,27.10
2019-02-17T02:40:20.170Z,27.70
2019-02-17T02:42:50.280Z,25.53
2019-02-17T02:45:20.234Z,25.50
2019-02-17T02:47:50.420Z,28.03
2019-02-17T02:50:20.710Z,26.43
2019-02-17T02:52:50.813Z,25.93
2019-02-17T02:55:21.108Z,30.17
2019-02-17T02:57:51.164Z,23.83
2019-02-17T03:00:21.442Z,26.47
2019-02-17T03:02:51.340Z,26.20
2019-02-17T03:05:21.591Z,27.40
2019-02-17T03:07:51.744Z,24.77
2019-02-17T03:10:21.672Z,23.90
2019-02-17T03:12:51.911Z,27.20
2019-02-17T03:15:22.041Z,23.67
2019-02-17T03:17:52.379Z,27.63
2019-02-17T03:20:22.321Z,23.37
2019-02-17T03:22:52.430Z,26.70
2019-02-17T03:25:22.856Z,28.40
2019-02-17T03:27:53.027Z,30.20
2019-02-17T03:30:23.552Z,24.40
2019-02-17T03:32:55.325Z,29.33
2019-02-17T03:35:25.327Z,27.77
2019-02-17T03:37:55.524Z,27.00
2019-02-17T03:40:29.193Z,24.67
2019-02-17T03:42:59.518Z,27.07
2019-02-17T03:45:29.629Z,22.33
2019-02-17T03:47:59.856Z,24.27
2019-02-17T03:50:30.035Z,25.07
2019-02-17T03:53:01.163Z,24.17
2019-02-17T03:55:31.674Z,29.10
2019-02-17T03:58:01.812Z,25.33
2019-02-17T04:00:32.286Z,26.13
2019-02-17T04:03:02.811Z,26.10
2019-02-17T04:05:33.186Z,24.47
2019-02-17T04:08:03.607Z,24.00
2019-02-17T04:10:33.675Z,24.47
2019-02-17T04:13:03.869Z,22.60
2019-02-17T04:15:34.243Z,24.23
2019-02-17T04:18:04.126Z,23.63
2019-02-17T04:20:34.151Z,25.80
2019-02-17T04:23:05.673Z,23.33
2019-02-17T04:25:35.770Z,27.70
2019-02-17T04:28:06.211Z,24.57
2019-02-17T04:30:36.587Z,24.80
2019-02-17T04:33:06.829Z,27.83
2019-02-17T04:35:37.042Z,24.07
2019-02-17T04:38:07.287Z,24.40
2019-02-17T04:40:37.870Z,23.77
2019-02-17T04:43:07.794Z,23.93
2019-02-17T04:45:38.426Z,23.63
2019-02-17T04:48:08.367Z,23.77
2019-02-17T04:50:38.611Z,23.90
2019-02-17T04:53:08.913Z,24.83
2019-02-17T04:55:39.315Z,23.17
2019-02-17T04:58:09.311Z,23.70
2019-02-17T05:00:40.616Z,27.93
2019-02-17T05:03:10.848Z,28.93
2019-02-17T05:05:41.497Z,28.50
2019-02-17T05:08:11.594Z,24.53
2019-02-17T05:10:41.661Z,27.73
2019-02-17T05:13:11.990Z,27.73
2019-02-17T05:15:42.285Z,29.43
2019-02-17T05:18:13.168Z,24.80
2019-02-17T05:20:46.336Z,24.43
2019-02-17T05:23:19.730Z,26.43
2019-02-17T05:25:50.987Z,27.57
2019-02-17T05:28:21.306Z,30.03
2019-02-17T05:30:53.313Z,27.27
2019-02-17T05:33:24.234Z,25.93
2019-02-17T05:35:54.822Z,27.07
2019-02-17T05:38:28.848Z,25.40
2019-02-17T05:41:02.171Z,26.70
2019-02-17T05:43:35.373Z,28.23
2019-02-17T05:46:06.333Z,27.60
2019-02-17T05:48:36.278Z,31.50
2019-02-17T05:51:06.334Z,28.10
2019-02-17T05:53:36.512Z,28.27
2019-02-17T05:56:06.778Z,30.93
2019-02-17T05:58:38.332Z,28.23
2019-02-17T06:01:08.478Z,30.53
2019-02-17T06:03:40.335Z,32.17
2019-02-17T06:06:15.764Z,29.13
2019-02-17T06:08:45.899Z,29.33
2019-02-17T06:11:16.378Z,29.50
2019-02-17T06:13:49.940Z,30.60
2019-02-17T06:16:20.071Z,30.43
2019-02-17T06:18:53.896Z,33.40
2019-02-17T06:21:26.429Z,30.40
2019-02-17T06:24:05.015Z,31.50
2019-02-17T06:26:38.661Z,31.20
2019-02-17T06:29:09.203Z,31.43
2019-02-17T06:31:45.084Z,30.63
2019-02-17T06:34:15.312Z,30.70
2019-02-17T06:36:46.728Z,28.73
2019-02-17T06:39:16.749Z,33.60
2019-02-17T06:41:47.156Z,30.87
2019-02-17T06:44:20.165Z,28.87
2019-02-17T06:46:58.475Z,30.33
2019-02-17T06:49:28.756Z,29.30
2019-02-17T06:51:59.513Z,30.27
2019-02-17T06:54:31.273Z,30.13
2019-02-17T06:57:24.132Z,35.10
2019-02-17T07:00:09.891Z,28.40
2019-02-17T07:02:40.118Z,29.07
2019-02-17T07:05:23.010Z,32.80
2019-02-17T07:07:52.966Z,32.60
2019-02-17T07:10:23.067Z,34.00
2019-02-17T07:12:52.659Z,31.07
2019-02-17T07:15:22.245Z,28.97
2019-02-17T07:17:51.876Z,31.70
2019-02-17T07:20:21.552Z,31.13
2019-02-17T07:22:51.250Z,28.93
2019-02-17T07:25:29.731Z,27.93
2019-02-17T07:27:58.544Z,27.93
2019-02-17T07:30:28.693Z,29.13
2019-02-17T07:32:58.989Z,36.40
2019-02-17T07:35:29.049Z,29.17
2019-02-17T07:38:07.608Z,30.57
2019-02-17T07:40:37.404Z,30.03
2019-02-17T07:43:12.962Z,32.93
2019-02-17T07:45:41.007Z,29.70
2019-02-17T07:48:11.101Z,30.40
2019-02-17T07:51:05.628Z,30.67
2019-02-17T07:53:39.070Z,31.00
2019-02-17T07:56:10.683Z,31.20
2019-02-17T07:58:40.989Z,32.70
2019-02-17T08:01:11.950Z,31.43
2019-02-17T08:03:43.053Z,31.47
2019-02-17T08:06:13.790Z,31.03
2019-02-17T08:08:43.825Z,30.57
2019-02-17T08:11:21.089Z,33.37
2019-02-17T08:13:51.525Z,29.87
2019-02-17T08:16:21.705Z,31.80
2019-02-17T08:18:56.370Z,34.13
2019-02-17T08:21:26.775Z,33.13
2019-02-17T08:24:01.373Z,31.53
2019-02-17T08:26:31.716Z,33.07
2019-02-17T08:29:03.518Z,31.23
2019-02-17T08:31:33.716Z,31.53
2019-02-17T08:34:04.921Z,32.30
2019-02-17T08:36:35.042Z,32.03
2019-02-17T08:39:05.639Z,31.90
2019-02-17T08:41:40.736Z,33.27
2019-02-17T08:44:11.122Z,29.50
2019-02-17T08:46:41.338Z,33.20
2019-02-17T08:49:18.669Z,31.50
2019-02-17T08:51:52.531Z,34.20
2019-02-17T08:54:22.865Z,32.00
2019-02-17T08:57:11.756Z,30.90
2019-02-17T08:59:43.915Z,32.97
2019-02-17T09:02:16.358Z,31.10
2019-02-17T09:04:49.493Z,29.97
2019-02-17T09:07:23.821Z,33.60
2019-02-17T09:10:03.096Z,30.93
2019-02-17T09:12:33.581Z,33.43
2019-02-17T09:15:03.942Z,31.60
2019-02-17T09:17:34.185Z,33.93
2019-02-17T09:20:05.185Z,36.40
2019-02-17T09:22:37.101Z,29.80
2019-02-17T09:25:08.799Z,31.50
2019-02-17T09:27:38.887Z,30.30
2019-02-17T09:30:14.571Z,30.00
2019-02-17T09:32:44.682Z,31.60
2019-02-17T09:35:17.911Z,33.07
2019-02-17T09:37:52.025Z,28.37
2019-02-17T09:43:14.177Z,30.20
2019-02-17T09:45:44.662Z,33.97
2019-02-17T09:48:17.112Z,31.13
2019-02-17T09:50:58.654Z,35.17
2019-02-17T09:53:32.229Z,32.17
2019-02-17T09:56:02.332Z,34.80
2019-02-17T09:58:33.035Z,32.60
2019-02-17T10:01:03.159Z,33.80
2019-02-17T10:03:33.557Z,34.17
2019-02-17T10:06:05.310Z,35.00
2019-02-17T10:08:35.751Z,33.93
2019-02-17T10:11:05.905Z,33.70
2019-02-17T10:13:36.022Z,35.20
2019-02-17T10:16:08.086Z,31.00
2019-02-17T10:18:41.817Z,33.63
2019-02-17T10:21:11.966Z,32.10
2019-02-17T10:23:42.512Z,32.67
2019-02-17T10:26:12.622Z,29.27
2019-02-17T10:28:42.889Z,33.97
2019-02-17T10:31:13.145Z,30.83
2019-02-17T10:33:43.204Z,31.53
2019-02-17T10:36:15.731Z,28.80
2019-02-17T10:38:46.934Z,27.00
2019-02-17T10:41:21.323Z,28.47
2019-02-17T10:43:51.722Z,30.83
2019-02-17T10:46:21.878Z,28.07
2019-02-17T10:48:52.349Z,29.50
2019-02-17T10:51:22.859Z,26.97
2019-02-17T10:53:52.859Z,26.97
2019-02-17T10:56:22.782Z,29.70
2019-02-17T10:58:53.020Z,29.43
2019-02-17T11:01:24.865Z,26.83
2019-02-17T11:04:03.197Z,26.37
2019-02-17T11:06:34.711Z,30.50
2019-02-17T11:09:16.738Z,27.00
2019-02-17T11:11:46.846Z,25.87
2019-02-17T11:14:16.803Z,26.63
2019-02-17T11:16:49.149Z,26.83
2019-02-17T11:19:19.727Z,25.93
2019-02-17T11:21:50.155Z,24.93
2019-02-17T11:24:21.606Z,26.63
2019-02-17T11:26:58.909Z,29.67
2019-02-17T11:29:29.069Z,25.73
2019-02-17T11:32:00.917Z,26.57
2019-02-17T11:34:31.303Z,25.63
2019-02-17T11:37:01.801Z,25.60
2019-02-17T11:39:32.204Z,29.27
2019-02-17T11:42:02.556Z,24.63
2019-02-17T11:44:32.763Z,27.30
2019-02-17T11:47:03.448Z,27.33
2019-02-17T11:49:33.520Z,26.07
2019-02-17T11:52:03.612Z,27.13
2019-02-17T11:54:33.722Z,25.23
2019-02-17T11:57:03.822Z,25.80
2019-02-17T11:59:33.819Z,29.70
2019-02-17T12:02:04.387Z,26.17
2019-02-17T12:04:34.381Z,26.17
2019-02-17T12:07:04.680Z,23.43
2019-02-17T12:09:34.705Z,26.73
2019-02-17T12:12:07.278Z,25.30
2019-02-17T12:14:37.259Z,25.17
2019-02-17T12:17:07.263Z,27.40
2019-02-17T12:19:39.866Z,27.23
2019-02-17T12:22:15.657Z,27.93
2019-02-17T12:24:54.205Z,25.37
2019-02-17T12:27:41.905Z,25.27
2019-02-17T12:30:15.769Z,26.13
2019-02-17T12:32:47.126Z,29.13
2019-02-17T12:35:19.657Z,26.53
2019-02-17T12:37:49.770Z,26.40
2019-02-17T12:40:19.849Z,29.40
2019-02-17T12:42:51.084Z,26.27
2019-02-17T12:45:21.655Z,25.13
2019-02-17T12:47:58.144Z,26.03
2019-02-17T12:50:23.995Z,30.23
2019-02-17T12:52:56.430Z,24.40
2019-02-17T12:55:28.093Z,28.50
2019-02-17T12:57:58.610Z,25.50
2019-02-17T13:00:30.969Z,25.07
2019-02-17T13:03:05.708Z,25.03
2019-02-17T13:05:37.483Z,24.20
2019-02-17T13:08:08.202Z,25.47
2019-02-17T13:10:38.834Z,28.07
2019-02-17T13:13:11.676Z,23.50
2019-02-17T13:15:41.607Z,25.43
2019-02-17T13:18:11.823Z,27.90
2019-02-17T13:20:42.167Z,24.47
2019-02-17T13:23:12.427Z,24.10
2019-02-17T13:25:43.296Z,23.63
2019-02-17T13:28:13.408Z,22.97
2019-02-17T13:30:43.602Z,23.87
2019-02-17T13:33:13.607Z,22.40
2019-02-17T13:35:44.125Z,24.70
2019-02-17T13:38:14.378Z,23.80
2019-02-17T13:40:44.517Z,23.77
2019-02-17T13:43:18.565Z,22.70
2019-02-17T13:45:50.476Z,23.17
2019-02-17T13:48:20.665Z,25.27
2019-02-17T13:50:50.677Z,22.77
2019-02-17T13:53:21.931Z,23.67
2019-02-17T13:55:55.170Z,21.80
2019-02-17T13:58:25.259Z,23.73
2019-02-17T14:00:55.390Z,23.70
2019-02-17T14:03:25.746Z,21.70
2019-02-17T14:05:56.428Z,23.60
2019-02-17T14:08:26.923Z,24.40
2019-02-17T14:11:02.190Z,23.17
2019-02-17T14:13:32.228Z,24.70
2019-02-17T14:16:02.406Z,25.10
2019-02-17T14:18:32.393Z,23.83
2019-02-17T14:21:02.379Z,23.37
2019-02-17T14:23:32.353Z,23.07
2019-02-17T14:26:02.303Z,25.43
2019-02-17T14:28:34.356Z,26.20
2019-02-17T14:31:04.593Z,23.13
2019-02-17T14:33:34.632Z,23.53
2019-02-17T14:36:04.506Z,21.97
2019-02-17T14:38:34.807Z,21.90
2019-02-17T14:41:05.047Z,23.70
2019-02-17T14:43:35.254Z,21.60
2019-02-17T14:46:05.354Z,23.80
2019-02-17T14:48:35.709Z,19.53
2019-02-17T14:51:06.307Z,19.37
2019-02-17T14:53:36.505Z,20.73
2019-02-17T14:56:07.022Z,20.17
2019-02-17T14:58:37.027Z,19.03
2019-02-17T15:01:07.508Z,20.93
2019-02-17T15:03:37.507Z,18.47
2019-02-17T15:06:07.334Z,20.53
2019-02-17T15:08:37.226Z,19.83
2019-02-17T15:11:07.243Z,19.20
2019-02-17T15:13:37.245Z,18.73
2019-02-17T15:16:07.366Z,20.70
2019-02-17T15:18:37.630Z,17.73
2019-02-17T15:21:08.169Z,21.27
2019-02-17T15:23:38.129Z,19.17
2019-02-17T15:26:08.169Z,20.43
2019-02-17T15:28:38.229Z,18.93
2019-02-17T15:31:08.670Z,21.40
2019-02-17T15:33:38.893Z,18.90
2019-02-17T15:36:12.354Z,19.70
2019-02-17T15:38:42.626Z,18.93
2019-02-17T15:41:13.016Z,18.67
2019-02-17T15:43:43.073Z,21.50
2019-02-17T15:46:13.413Z,20.77
2019-02-17T15:48:43.695Z,22.03
2019-02-17T15:51:13.873Z,16.87
2019-02-17T15:53:43.973Z,18.30
2019-02-17T15:56:13.976Z,18.03
2019-02-17T15:58:45.048Z,19.30
2019-02-17T16:01:15.492Z,18.53
2019-02-17T16:03:47.353Z,16.80
2019-02-17T16:06:45.567Z,18.70
2019-02-17T16:09:15.506Z,16.20
2019-02-17T16:11:45.770Z,17.93
2019-02-17T16:14:16.203Z,17.93
2019-02-17T16:16:46.961Z,20.27
2019-02-17T16:19:17.083Z,18.73
2019-02-17T16:21:47.442Z,16.87
2019-02-17T16:24:17.471Z,20.03
2019-02-17T16:26:47.507Z,21.13
2019-02-17T16:29:18.058Z,22.27
2019-02-17T16:31:49.193Z,18.63
2019-02-17T16:34:19.248Z,18.13
2019-02-17T16:36:49.336Z,17.97
2019-02-17T16:39:19.876Z,18.10
2019-02-17T16:41:49.956Z,20.70
2019-02-17T16:44:20.008Z,20.97
2019-02-17T16:46:50.284Z,19.23
2019-02-17T16:49:20.695Z,19.53
2019-02-17T16:51:50.625Z,21.23
2019-02-17T16:54:20.895Z,22.10
2019-02-17T16:56:50.858Z,19.03
2019-02-17T16:59:23.690Z,22.77
2019-02-17T17:01:53.634Z,21.80
2019-02-17T17:04:23.652Z,19.80
2019-02-17T17:06:56.198Z,19.73
2019-02-17T17:09:26.311Z,21.23
2019-02-17T17:11:56.327Z,24.10
2019-02-17T17:14:28.358Z,19.07
2019-02-17T17:16:58.514Z,21.90
2019-02-17T17:19:28.515Z,22.70
2019-02-17T17:21:59.043Z,25.20
2019-02-17T17:24:29.209Z,20.90
2019-02-17T17:26:59.586Z,25.03
2019-02-17T17:29:35.179Z,22.87
2019-02-17T17:32:06.523Z,22.87
2019-02-17T17:34:36.666Z,23.87
2019-02-17T17:37:09.094Z,22.23
2019-02-17T17:39:39.142Z,22.60
2019-02-17T17:42:09.081Z,23.10
2019-02-17T17:44:40.950Z,21.40
2019-02-17T17:47:11.485Z,27.33
2019-02-17T17:49:41.622Z,23.20
2019-02-17T17:52:11.809Z,27.70
2019-02-17T17:54:42.118Z,22.77
2019-02-17T17:57:13.790Z,24.90
2019-02-17T17:59:43.710Z,25.90
2019-02-17T18:02:13.926Z,32.90
2019-02-17T18:04:44.101Z,23.27
2019-02-17T18:07:14.168Z,30.43
2019-02-17T18:09:44.157Z,25.80
2019-02-17T18:12:14.336Z,24.30
2019-02-17T18:14:44.759Z,27.80
2019-02-17T18:17:15.122Z,27.67
2019-02-17T18:19:45.355Z,29.70
2019-02-17T18:22:15.492Z,25.30
2019-02-17T18:24:46.482Z,25.60
2019-02-17T18:27:16.703Z,26.77
2019-02-17T18:29:46.684Z,25.13
2019-02-17T18:32:17.381Z,25.50
2019-02-17T18:34:48.225Z,23.93
2019-02-17T18:37:18.394Z,26.73
2019-02-17T18:39:48.742Z,26.27
2019-02-17T18:42:19.060Z,29.87
2019-02-17T18:44:48.990Z,31.17
2019-02-17T18:47:19.986Z,25.97
2019-02-17T18:49:50.156Z,23.43
2019-02-17T18:52:20.219Z,26.53
2019-02-17T18:54:52.213Z,26.20
2019-02-17T18:57:24.327Z,27.90
2019-02-17T18:59:57.037Z,24.33
2019-02-17T19:02:26.884Z,25.10
2019-02-17T19:04:57.036Z,26.67
2019-02-17T19:07:27.037Z,26.00
2019-02-17T19:09:57.029Z,23.73
2019-02-17T19:12:28.390Z,23.83
2019-02-17T19:14:58.426Z,26.37
2019-02-17T19:17:28.783Z,27.83
2019-02-17T19:19:58.803Z,25.00
2019-02-17T19:22:28.887Z,23.23
2019-02-17T19:24:59.115Z,24.70
2019-02-17T19:27:29.197Z,25.27
2019-02-17T19:29:59.211Z,24.73
2019-02-17T19:32:29.184Z,26.63
2019-02-17T19:34:59.220Z,22.00
2019-02-17T19:37:29.616Z,26.10
2019-02-17T19:39:59.618Z,24.03
2019-02-17T19:42:29.822Z,26.30
2019-02-17T19:45:00.007Z,27.30
2019-02-17T19:47:29.988Z,27.47
2019-02-17T19:50:00.283Z,26.30
2019-02-17T19:52:30.285Z,25.03
2019-02-17T19:55:03.618Z,27.93
2019-02-17T19:57:33.899Z,28.17
2019-02-17T20:00:04.090Z,24.37
2019-02-17T20:02:54.186Z,25.73
2019-02-17T20:05:26.755Z,27.63
2019-02-17T20:07:57.015Z,24.27
2019-02-17T20:10:27.217Z,28.00
2019-02-17T20:12:57.338Z,27.73
2019-02-17T20:15:31.951Z,26.77
2019-02-17T20:18:05.713Z,27.20
2019-02-17T20:20:35.940Z,25.67
2019-02-17T20:23:07.319Z,27.60
2019-02-17T20:25:37.514Z,25.10
2019-02-17T20:28:07.545Z,26.30
2019-02-17T20:30:38.072Z,23.67
2019-02-17T20:33:09.611Z,24.47
2019-02-17T20:35:39.554Z,26.60
2019-02-17T20:38:09.689Z,28.20
2019-02-17T20:40:39.710Z,25.87
2019-02-17T20:43:09.708Z,24.87
2019-02-17T20:45:39.901Z,27.23
2019-02-17T20:48:11.566Z,26.20
2019-02-17T20:50:41.849Z,27.80
2019-02-17T20:53:12.033Z,28.27
2019-02-17T20:55:42.114Z,26.33
2019-02-17T20:58:12.346Z,26.43
2019-02-17T21:00:42.735Z,30.63
2019-02-17T21:03:14.812Z,26.77
2019-02-17T21:05:45.493Z,27.80
2019-02-17T21:08:15.409Z,29.47
2019-02-17T21:10:45.583Z,27.67
2019-02-17T21:13:19.308Z,31.07
2019-02-17T21:15:49.431Z,30.07
2019-02-17T21:18:19.406Z,25.37
2019-02-17T21:20:49.323Z,30.40
2019-02-17T21:23:21.159Z,28.80
2019-02-17T21:26:01.651Z,26.40
2019-02-17T21:28:31.618Z,27.13
2019-02-17T21:31:01.737Z,27.40
2019-02-17T21:33:31.932Z,25.70
2019-02-17T21:36:01.875Z,27.33
2019-02-17T21:38:31.885Z,31.77
2019-02-17T21:41:09.324Z,27.43
2019-02-17T21:43:35.304Z,28.63
2019-02-17T21:46:06.665Z,28.13
2019-02-17T21:48:37.253Z,28.53
2019-02-17T21:51:07.410Z,29.47
2019-02-17T21:53:37.343Z,29.87
2019-02-17T21:56:07.514Z,29.03
2019-02-17T21:58:37.927Z,27.17
2019-02-17T22:01:12.025Z,33.17
2019-02-17T22:03:42.438Z,31.90
2019-02-17T22:06:12.558Z,31.50
2019-02-17T22:08:42.686Z,28.90
2019-02-17T22:11:12.824Z,32.90
2019-02-17T22:13:43.027Z,27.93
2019-02-17T22:16:15.231Z,28.13
2019-02-17T22:18:45.940Z,29.50
2019-02-17T22:21:16.057Z,32.20
2019-02-17T22:23:45.994Z,30.23
2019-02-17T22:26:16.221Z,27.83
2019-02-17T22:28:46.955Z,30.43
2019-02-17T22:31:16.954Z,32.37
2019-02-17T22:33:47.087Z,33.33
2019-02-17T22:36:17.209Z,30.00
2019-02-17T22:38:50.532Z,29.57
2019-02-17T22:41:19.665Z,30.47
2019-02-17T22:43:50.073Z,31.10
2019-02-17T22:46:20.465Z,29.07
2019-02-17T22:48:50.537Z,32.50
2019-02-17T22:51:20.522Z,35.40
2019-02-17T22:53:50.380Z,30.00
2019-02-17T22:56:20.404Z,34.70
2019-02-17T22:58:50.891Z,30.70
2019-02-17T23:01:26.298Z,32.23
2019-02-17T23:03:56.442Z,34.07
2019-02-17T23:06:26.578Z,34.83
2019-02-17T23:08:56.785Z,31.97
2019-02-17T23:11:26.834Z,33.63
2019-02-17T23:13:56.817Z,32.87
2019-02-17T23:16:26.941Z,32.30
2019-02-17T23:18:56.777Z,32.47
2019-02-17T23:21:26.859Z,32.37
2019-02-17T23:23:56.829Z,31.27
2019-02-17T23:26:27.173Z,31.40
2019-02-17T23:28:57.323Z,30.60
2019-02-17T23:31:27.543Z,34.83
2019-02-17T23:33:57.570Z,32.37
2019-02-17T23:36:27.767Z,29.87
2019-02-17T23:38:58.056Z,30.60
2019-02-17T23:41:28.126Z,30.23
2019-02-17T23:44:00.411Z,30.80
2019-02-17T23:46:30.675Z,34.93
2019-02-17T23:49:00.893Z,27.90
2019-02-17T23:51:30.983Z,28.93
2019-02-17T23:54:01.126Z,33.90
2019-02-17T23:56:31.198Z,30.00
2019-02-17T23:59:01.292Z,29.90
